createdAt,value
2023-09-17T00:00:31.771Z,50.852764
2023-09-17T00:01:31.812Z,50.852745
2023-09-17T00:02:31.789Z,50.852776
2023-09-17T00:03:31.933Z,50.852776
2023-09-17T00:04:31.795Z,50.852829
2023-09-17T00:05:31.717Z,50.852833
2023-09-17T00:06:31.710Z,50.852779
2023-09-17T00:07:31.756Z,50.852795
2023-09-17T00:08:31.712Z,50.852787
2023-09-17T00:09:31.666Z,50.852814
2023-09-17T00:10:31.782Z,50.852821
2023-09-17T00:11:31.683Z,50.852783
2023-09-17T00:12:31.691Z,50.852798
2023-09-17T00:13:31.706Z,50.852806
2023-09-17T00:14:31.648Z,50.852852
2023-09-17T00:15:31.620Z,50.852829
2023-09-17T00:16:31.788Z,50.852798
2023-09-17T00:17:31.726Z,50.852802
2023-09-17T00:18:31.641Z,50.852802
2023-09-17T00:19:31.682Z,50.852787
2023-09-17T00:20:31.599Z,50.852795
2023-09-17T00:21:31.577Z,50.852768
2023-09-17T00:22:31.631Z,50.852791
2023-09-17T00:23:31.610Z,50.852798
2023-09-17T00:24:31.585Z,50.852798
2023-09-17T00:25:31.597Z,50.852818
2023-09-17T00:26:31.546Z,50.852825
2023-09-17T00:27:31.529Z,50.852840
2023-09-17T00:28:31.592Z,50.852814
2023-09-17T00:29:31.511Z,50.852764
2023-09-17T00:30:31.583Z,50.852783
2023-09-17T00:31:31.590Z,50.852814
2023-09-17T00:32:31.542Z,50.852833
2023-09-17T00:33:31.496Z,50.852814
2023-09-17T00:34:31.509Z,50.852783
2023-09-17T00:35:31.473Z,50.852787
2023-09-17T00:36:31.502Z,50.852779
2023-09-17T00:37:31.495Z,50.852779
2023-09-17T00:38:31.466Z,50.852802
2023-09-17T00:39:31.460Z,50.852787
2023-09-17T00:40:31.554Z,50.852791
2023-09-17T00:41:31.429Z,50.852795
2023-09-17T00:42:31.457Z,50.852802
2023-09-17T00:43:31.513Z,50.852795
2023-09-17T00:44:31.429Z,50.852795
2023-09-17T00:45:31.394Z,50.852821
2023-09-17T00:46:31.477Z,50.852810
2023-09-17T00:47:31.394Z,50.852810
2023-09-17T00:48:31.415Z,50.852787
2023-09-17T00:49:31.399Z,50.852814
2023-09-17T00:50:31.374Z,50.852779
2023-09-17T00:51:31.362Z,50.852783
2023-09-17T00:52:31.373Z,50.852783
2023-09-17T00:53:31.345Z,50.852806
2023-09-17T00:54:31.380Z,50.852791
2023-09-17T00:55:31.355Z,50.852779
2023-09-17T00:56:31.344Z,50.852787
2023-09-17T00:57:31.324Z,50.852779
2023-09-17T00:58:31.328Z,50.852779
2023-09-17T00:59:31.296Z,50.852783
2023-09-17T01:00:31.323Z,50.852802
2023-09-17T01:01:31.357Z,50.852798
2023-09-17T01:02:31.420Z,50.852795
2023-09-17T01:03:31.411Z,50.852791
2023-09-17T01:04:31.356Z,50.852779
2023-09-17T01:05:31.280Z,50.852810
2023-09-17T01:06:31.270Z,50.852795
2023-09-17T01:07:31.265Z,50.852795
2023-09-17T01:08:31.427Z,50.852802
2023-09-17T01:09:31.240Z,50.852776
2023-09-17T01:10:31.338Z,50.852764
2023-09-17T01:11:31.209Z,50.852814
2023-09-17T01:12:31.229Z,50.852829
2023-09-17T01:13:31.215Z,50.852821
2023-09-17T01:14:31.218Z,50.852818
2023-09-17T01:15:31.186Z,50.852818
2023-09-17T01:16:31.307Z,50.852829
2023-09-17T01:17:31.237Z,50.852825
2023-09-17T01:18:31.224Z,50.852810
2023-09-17T01:19:31.239Z,50.852818
2023-09-17T01:20:31.235Z,50.852806
2023-09-17T01:21:31.176Z,50.852783
2023-09-17T01:22:31.202Z,50.852783
2023-09-17T01:23:31.118Z,50.852776
2023-09-17T01:24:31.120Z,50.852802
2023-09-17T01:25:31.165Z,50.852818
2023-09-17T01:26:31.110Z,50.852810
2023-09-17T01:27:31.119Z,50.852795
2023-09-17T01:28:31.117Z,50.852810
2023-09-17T01:29:31.064Z,50.852787
2023-09-17T01:30:31.080Z,50.852798
2023-09-17T01:31:31.059Z,50.852802
2023-09-17T01:32:31.136Z,50.852814
2023-09-17T01:33:31.100Z,50.852810
2023-09-17T01:34:31.729Z,50.852810
2023-09-17T01:35:31.019Z,50.852814
2023-09-17T01:36:31.037Z,50.852814
2023-09-17T01:37:31.063Z,50.852825
2023-09-17T01:38:31.032Z,50.852798
2023-09-17T01:39:31.000Z,50.852810
2023-09-17T01:40:31.033Z,50.852814
2023-09-17T01:41:30.981Z,50.852814
2023-09-17T01:42:31.012Z,50.852772
2023-09-17T01:43:30.980Z,50.852753
2023-09-17T01:44:30.969Z,50.852802
2023-09-17T01:45:30.989Z,50.852825
2023-09-17T01:46:30.979Z,50.852833
2023-09-17T01:47:30.958Z,50.852806
2023-09-17T01:48:30.955Z,50.852783
2023-09-17T01:49:30.942Z,50.852798
2023-09-17T01:50:30.954Z,50.852779
2023-09-17T01:51:30.938Z,50.852806
2023-09-17T01:52:30.958Z,50.852810
2023-09-17T01:53:30.888Z,50.852776
2023-09-17T01:54:30.919Z,50.852783
2023-09-17T01:55:30.932Z,50.852783
2023-09-17T01:56:30.907Z,50.852798
2023-09-17T01:57:30.861Z,50.852795
2023-09-17T01:58:30.908Z,50.852745
2023-09-17T01:59:30.847Z,50.852810
2023-09-17T02:00:30.898Z,50.852833
2023-09-17T02:01:30.901Z,50.852795
2023-09-17T02:02:31.446Z,50.852791
2023-09-17T02:03:30.846Z,50.852818
2023-09-17T02:04:30.855Z,50.852802
2023-09-17T02:05:30.821Z,50.852802
2023-09-17T02:06:30.802Z,50.852802
2023-09-17T02:07:30.847Z,50.852818
2023-09-17T02:08:30.804Z,50.852810
2023-09-17T02:09:30.765Z,50.852787
2023-09-17T02:10:30.810Z,50.852795
2023-09-17T02:11:30.768Z,50.852787
2023-09-17T02:12:30.759Z,50.852787
2023-09-17T02:13:30.776Z,50.852787
2023-09-17T02:14:30.753Z,50.852798
2023-09-17T02:15:30.760Z,50.852779
2023-09-17T02:16:30.760Z,50.852787
2023-09-17T02:17:30.842Z,50.852791
2023-09-17T02:18:30.719Z,50.852783
2023-09-17T02:19:30.733Z,50.852776
2023-09-17T02:20:30.699Z,50.852776
2023-09-17T02:21:30.712Z,50.852825
2023-09-17T02:22:30.720Z,50.852776
2023-09-17T02:23:30.656Z,50.852840
2023-09-17T02:24:30.651Z,50.852879
2023-09-17T02:25:30.656Z,50.852757
2023-09-17T02:26:30.640Z,50.852833
2023-09-17T02:27:30.618Z,50.852715
2023-09-17T02:28:30.699Z,50.852825
2023-09-17T02:29:30.593Z,50.852783
2023-09-17T02:30:30.607Z,50.852779
2023-09-17T02:31:30.638Z,50.852806
2023-09-17T02:32:30.598Z,50.852821
2023-09-17T02:33:30.591Z,50.852833
2023-09-17T02:34:30.591Z,50.852810
2023-09-17T02:35:30.545Z,50.852760
2023-09-17T02:36:30.555Z,50.852795
2023-09-17T02:37:30.598Z,50.852802
2023-09-17T02:38:30.533Z,50.852821
2023-09-17T02:39:30.533Z,50.852814
2023-09-17T02:40:30.580Z,50.852810
2023-09-17T02:41:30.487Z,50.852779
2023-09-17T02:42:30.500Z,50.852741
2023-09-17T02:43:30.615Z,50.852760
2023-09-17T02:44:30.492Z,50.852783
2023-09-17T02:45:30.505Z,50.852764
2023-09-17T02:46:30.568Z,50.852779
2023-09-17T02:47:30.530Z,50.852741
2023-09-17T02:48:30.458Z,50.852768
2023-09-17T02:49:30.475Z,50.852776
2023-09-17T02:50:30.446Z,50.852745
2023-09-17T02:51:30.435Z,50.852757
2023-09-17T02:52:30.438Z,50.852776
2023-09-17T02:53:30.402Z,50.852776
2023-09-17T02:54:30.445Z,50.852795
2023-09-17T02:55:30.412Z,50.852787
2023-09-17T02:56:30.402Z,50.852795
2023-09-17T02:57:30.388Z,50.852798
2023-09-17T02:58:30.452Z,50.852818
2023-09-17T02:59:30.423Z,50.852798
2023-09-17T03:00:30.368Z,50.852787
2023-09-17T03:01:30.422Z,50.852772
2023-09-17T03:02:30.524Z,50.852848
2023-09-17T03:03:30.382Z,50.852795
2023-09-17T03:04:30.349Z,50.852783
2023-09-17T03:05:30.332Z,50.852772
2023-09-17T03:06:30.310Z,50.852795
2023-09-17T03:07:30.295Z,50.852798
2023-09-17T03:08:30.301Z,50.852818
2023-09-17T03:09:30.272Z,50.852768
2023-09-17T03:10:30.376Z,50.852798
2023-09-17T03:11:30.262Z,50.852772
2023-09-17T03:12:30.271Z,50.852757
2023-09-17T03:13:30.311Z,50.852722
2023-09-17T03:14:30.272Z,50.852791
2023-09-17T03:15:30.221Z,50.852760
2023-09-17T03:16:30.271Z,50.852745
2023-09-17T03:17:30.397Z,50.852760
2023-09-17T03:18:30.220Z,50.852737
2023-09-17T03:19:30.203Z,50.852787
2023-09-17T03:20:30.219Z,50.852787
2023-09-17T03:21:30.177Z,50.852818
2023-09-17T03:22:30.232Z,50.852802
2023-09-17T03:23:30.181Z,50.852814
2023-09-17T03:24:30.167Z,50.852806
2023-09-17T03:25:30.243Z,50.852795
2023-09-17T03:26:30.174Z,50.852779
2023-09-17T03:27:30.128Z,50.852791
2023-09-17T03:28:30.223Z,50.852825
2023-09-17T03:29:30.154Z,50.852802
2023-09-17T03:30:30.183Z,50.852764
2023-09-17T03:31:30.183Z,50.852737
2023-09-17T03:32:30.166Z,50.852768
2023-09-17T03:33:30.122Z,50.852764
2023-09-17T03:34:30.113Z,50.852779
2023-09-17T03:35:30.065Z,50.852776
2023-09-17T03:36:30.101Z,50.852745
2023-09-17T03:37:30.057Z,50.852695
2023-09-17T03:38:30.063Z,50.852764
2023-09-17T03:39:30.036Z,50.852760
2023-09-17T03:40:30.086Z,50.852726
2023-09-17T03:41:30.031Z,50.852741
2023-09-17T03:42:30.019Z,50.852726
2023-09-17T03:43:30.050Z,50.852726
2023-09-17T03:44:30.017Z,50.852741
2023-09-17T03:45:29.996Z,50.852737
2023-09-17T03:46:30.045Z,50.852734
2023-09-17T03:47:30.027Z,50.852749
2023-09-17T03:48:29.984Z,50.852749
2023-09-17T03:49:29.970Z,50.852753
2023-09-17T03:50:29.978Z,50.852745
2023-09-17T03:51:29.936Z,50.852741
2023-09-17T03:52:29.987Z,50.852772
2023-09-17T03:53:29.933Z,50.852760
2023-09-17T03:54:29.930Z,50.852772
2023-09-17T03:55:29.959Z,50.852722
2023-09-17T03:56:29.935Z,50.852737
2023-09-17T03:57:29.902Z,50.852776
2023-09-17T03:58:29.929Z,50.852753
2023-09-17T03:59:29.866Z,50.852760
2023-09-17T04:00:29.870Z,50.852764
2023-09-17T04:01:29.912Z,50.852768
2023-09-17T04:02:30.079Z,50.852776
2023-09-17T04:03:29.855Z,50.852753
2023-09-17T04:04:29.927Z,50.852753
2023-09-17T04:05:29.847Z,50.852768
2023-09-17T04:06:29.822Z,50.852764
2023-09-17T04:07:29.833Z,50.852757
2023-09-17T04:08:29.811Z,50.852749
2023-09-17T04:09:29.783Z,50.852760
2023-09-17T04:10:29.838Z,50.852764
2023-09-17T04:11:29.799Z,50.852768
2023-09-17T04:12:29.770Z,50.852783
2023-09-17T04:13:30.688Z,50.852764
2023-09-17T04:14:29.834Z,50.852768
2023-09-17T04:15:29.746Z,50.852772
2023-09-17T04:16:29.799Z,50.852779
2023-09-17T04:17:29.780Z,50.852753
2023-09-17T04:18:29.747Z,50.852745
2023-09-17T04:19:29.761Z,50.852753
2023-09-17T04:20:29.710Z,50.852760
2023-09-17T04:21:29.694Z,50.852753
2023-09-17T04:22:29.731Z,50.852764
2023-09-17T04:23:29.691Z,50.852768
2023-09-17T04:24:29.706Z,50.852768
2023-09-17T04:25:29.696Z,50.852764
2023-09-17T04:26:29.677Z,50.852772
2023-09-17T04:27:29.664Z,50.852757
2023-09-17T04:28:29.699Z,50.852741
2023-09-17T04:29:29.627Z,50.852737
2023-09-17T04:30:29.638Z,50.852760
2023-09-17T04:31:29.678Z,50.852760
2023-09-17T04:32:29.762Z,50.852760
2023-09-17T04:33:29.596Z,50.852764
2023-09-17T04:34:29.667Z,50.852753
2023-09-17T04:35:29.586Z,50.852776
2023-09-17T04:36:29.590Z,50.852753
2023-09-17T04:37:29.607Z,50.852734
2023-09-17T04:38:29.571Z,50.852760
2023-09-17T04:39:29.546Z,50.852772
2023-09-17T04:40:29.866Z,50.852718
2023-09-17T04:41:29.537Z,50.852787
2023-09-17T04:42:29.544Z,50.852757
2023-09-17T04:43:29.535Z,50.852760
2023-09-17T04:44:29.550Z,50.852757
2023-09-17T04:45:29.503Z,50.852741
2023-09-17T04:46:29.627Z,50.852730
2023-09-17T04:47:29.498Z,50.852737
2023-09-17T04:48:29.485Z,50.852753
2023-09-17T04:49:29.535Z,50.852741
2023-09-17T04:50:29.489Z,50.852737
2023-09-17T04:51:29.440Z,50.852749
2023-09-17T04:52:29.502Z,50.852760
2023-09-17T04:53:29.426Z,50.852760
2023-09-17T04:54:29.440Z,50.852764
2023-09-17T04:55:29.427Z,50.852772
2023-09-17T04:56:29.433Z,50.852745
2023-09-17T04:57:29.385Z,50.852776
2023-09-17T04:58:29.436Z,50.852795
2023-09-17T04:59:29.377Z,50.852833
2023-09-17T05:00:29.404Z,50.852814
2023-09-17T05:01:29.407Z,50.852814
2023-09-17T05:02:29.474Z,50.852829
2023-09-17T05:03:29.449Z,50.852825
2023-09-17T05:04:29.373Z,50.852840
2023-09-17T05:05:29.326Z,50.852795
2023-09-17T05:06:29.329Z,50.852806
2023-09-17T05:07:29.346Z,50.852787
2023-09-17T05:08:29.323Z,50.852806
2023-09-17T05:09:29.317Z,50.852772
2023-09-17T05:10:29.374Z,50.852795
2023-09-17T05:11:29.275Z,50.852787
2023-09-17T05:12:29.295Z,50.852810
2023-09-17T05:13:29.300Z,50.852821
2023-09-17T05:14:29.267Z,50.852806
2023-09-17T05:15:29.281Z,50.852802
2023-09-17T05:16:29.334Z,50.852821
2023-09-17T05:17:29.242Z,50.852795
2023-09-17T05:18:29.243Z,50.852802
2023-09-17T05:19:29.246Z,50.852829
2023-09-17T05:20:31.032Z,50.852806
2023-09-17T05:21:29.213Z,50.852821
2023-09-17T05:22:29.245Z,50.852833
2023-09-17T05:23:29.185Z,50.852818
2023-09-17T05:24:29.194Z,50.852821
2023-09-17T05:25:29.219Z,50.852833
2023-09-17T05:26:29.183Z,50.852821
2023-09-17T05:27:29.176Z,50.852821
2023-09-17T05:28:29.228Z,50.852806
2023-09-17T05:29:29.176Z,50.852821
2023-09-17T05:30:29.154Z,50.852806
2023-09-17T05:31:29.132Z,50.852795
2023-09-17T05:32:29.253Z,50.852795
2023-09-17T05:33:29.126Z,50.852818
2023-09-17T05:34:29.183Z,50.852825
2023-09-17T05:35:29.113Z,50.852833
2023-09-17T05:36:29.100Z,50.852821
2023-09-17T05:37:29.215Z,50.852848
2023-09-17T05:38:29.091Z,50.852859
2023-09-17T05:39:29.076Z,50.852814
2023-09-17T05:40:29.094Z,50.852795
2023-09-17T05:41:29.038Z,50.852852
2023-09-17T05:42:29.053Z,50.852791
2023-09-17T05:43:29.039Z,50.852814
2023-09-17T05:44:29.035Z,50.852829
2023-09-17T05:45:29.070Z,50.852802
2023-09-17T05:46:29.024Z,50.852821
2023-09-17T05:47:29.017Z,50.852833
2023-09-17T05:48:29.004Z,50.852810
2023-09-17T05:49:28.980Z,50.852814
2023-09-17T05:50:29.009Z,50.852837
2023-09-17T05:51:28.981Z,50.852833
2023-09-17T05:52:28.996Z,50.852833
2023-09-17T05:53:28.963Z,50.852837
2023-09-17T05:54:28.975Z,50.852844
2023-09-17T05:55:29.019Z,50.852840
2023-09-17T05:56:28.938Z,50.852840
2023-09-17T05:57:28.935Z,50.852882
2023-09-17T05:58:28.984Z,50.852882
2023-09-17T05:59:31.223Z,50.852833
2023-09-17T06:00:28.916Z,50.852856
2023-09-17T06:01:28.918Z,50.852859
2023-09-17T06:02:28.930Z,50.852863
2023-09-17T06:03:28.896Z,50.852882
2023-09-17T06:04:28.964Z,50.852852
2023-09-17T06:05:28.864Z,50.852859
2023-09-17T06:06:28.870Z,50.852867
2023-09-17T06:07:28.886Z,50.852840
2023-09-17T06:08:28.851Z,50.852840
2023-09-17T06:09:28.829Z,50.852882
2023-09-17T06:10:28.845Z,50.852863
2023-09-17T06:11:28.821Z,50.852837
2023-09-17T06:12:28.846Z,50.852886
2023-09-17T06:13:28.853Z,50.852837
2023-09-17T06:14:28.826Z,50.852859
2023-09-17T06:15:28.797Z,50.852856
2023-09-17T06:16:33.942Z,50.852852
2023-09-17T06:17:28.802Z,50.852833
2023-09-17T06:18:28.785Z,50.852837
2023-09-17T06:19:28.785Z,50.852840
2023-09-17T06:20:28.788Z,50.852837
2023-09-17T06:21:28.744Z,50.852844
2023-09-17T06:22:28.742Z,50.852848
2023-09-17T06:23:28.728Z,50.852867
2023-09-17T06:24:28.730Z,50.852859
2023-09-17T06:25:28.727Z,50.852837
2023-09-17T06:26:28.733Z,50.852848
2023-09-17T06:27:28.693Z,50.852837
2023-09-17T06:28:28.732Z,50.852867
2023-09-17T06:29:28.677Z,50.852856
2023-09-17T06:30:28.692Z,50.852886
2023-09-17T06:31:28.780Z,50.852901
2023-09-17T06:32:28.837Z,50.852875
2023-09-17T06:33:28.647Z,50.852913
2023-09-17T06:34:28.665Z,50.852928
2023-09-17T06:35:28.648Z,50.852898
2023-09-17T06:36:29.467Z,50.852917
2023-09-17T06:37:28.624Z,50.852882
2023-09-17T06:38:28.636Z,50.852863
2023-09-17T06:39:28.591Z,50.852879
2023-09-17T06:40:28.625Z,50.852863
2023-09-17T06:41:28.589Z,50.852848
2023-09-17T06:42:28.610Z,50.852840
2023-09-17T06:43:28.630Z,50.852833
2023-09-17T06:44:28.597Z,50.852856
2023-09-17T06:45:28.566Z,50.852833
2023-09-17T06:46:28.658Z,50.852856
2023-09-17T06:47:28.674Z,50.852833
2023-09-17T06:48:28.565Z,50.852879
2023-09-17T06:49:28.564Z,50.852844
2023-09-17T06:50:28.546Z,50.852856
2023-09-17T06:51:28.569Z,50.852844
2023-09-17T06:52:28.797Z,50.852829
2023-09-17T06:53:28.500Z,50.852787
2023-09-17T06:54:28.518Z,50.852802
2023-09-17T06:55:28.512Z,50.852829
2023-09-17T06:56:28.515Z,50.852840
2023-09-17T06:57:28.486Z,50.852837
2023-09-17T06:58:28.590Z,50.852818
2023-09-17T06:59:28.457Z,50.852852
2023-09-17T07:00:28.493Z,50.852886
2023-09-17T07:01:28.537Z,50.852856
2023-09-17T07:02:28.523Z,50.852867
2023-09-17T07:03:28.458Z,50.852882
2023-09-17T07:04:28.482Z,50.852837
2023-09-17T07:05:28.463Z,50.852840
2023-09-17T07:06:28.427Z,50.852863
2023-09-17T07:07:28.476Z,50.852837
2023-09-17T07:08:28.422Z,50.852852
2023-09-17T07:09:28.383Z,50.852875
2023-09-17T07:10:28.418Z,50.852852
2023-09-17T07:11:28.365Z,50.852825
2023-09-17T07:12:28.364Z,50.852848
2023-09-17T07:13:28.355Z,50.852818
2023-09-17T07:14:28.374Z,50.852818
2023-09-17T07:15:28.352Z,50.852837
2023-09-17T07:16:28.407Z,50.852829
2023-09-17T07:17:28.389Z,50.852829
2023-09-17T07:18:28.331Z,50.852818
2023-09-17T07:19:28.379Z,50.852825
2023-09-17T07:20:28.316Z,50.852852
2023-09-17T07:21:28.306Z,50.852837
2023-09-17T07:22:28.337Z,50.852852
2023-09-17T07:23:28.298Z,50.852798
2023-09-17T07:24:28.285Z,50.852802
2023-09-17T07:25:28.275Z,50.852787
2023-09-17T07:26:28.323Z,50.852840
2023-09-17T07:27:28.246Z,50.852905
2023-09-17T07:28:30.409Z,50.852814
2023-09-17T07:29:28.232Z,50.852753
2023-09-17T07:30:28.237Z,50.852764
2023-09-17T07:31:28.276Z,50.852783
2023-09-17T07:32:28.271Z,50.852783
2023-09-17T07:33:28.213Z,50.852798
2023-09-17T07:34:28.345Z,50.852776
2023-09-17T07:35:28.193Z,50.852741
2023-09-17T07:36:28.236Z,50.852783
2023-09-17T07:37:36.982Z,50.852810
2023-09-17T07:38:30.155Z,50.852798
2023-09-17T07:39:28.172Z,50.852840
2023-09-17T07:40:28.195Z,50.852764
2023-09-17T07:41:28.141Z,50.852757
2023-09-17T07:42:28.156Z,50.852772
2023-09-17T07:43:28.212Z,50.852730
2023-09-17T07:44:28.141Z,50.852726
2023-09-17T07:45:28.120Z,50.852753
2023-09-17T07:46:28.177Z,50.852768
2023-09-17T07:47:28.160Z,50.852741
2023-09-17T07:48:28.122Z,50.852734
2023-09-17T07:49:28.217Z,50.852703
2023-09-17T07:50:28.116Z,50.852695
2023-09-17T07:51:28.069Z,50.852722
2023-09-17T07:52:28.205Z,50.852707
2023-09-17T07:53:28.097Z,50.852722
2023-09-17T07:54:28.064Z,50.852757
2023-09-17T07:55:28.050Z,50.852745
2023-09-17T07:56:28.045Z,50.852726
2023-09-17T07:57:28.029Z,50.852711
2023-09-17T07:58:28.054Z,50.852757
2023-09-17T07:59:28.030Z,50.852741
2023-09-17T08:00:28.008Z,50.852737
2023-09-17T08:01:28.142Z,50.852737
2023-09-17T08:02:28.053Z,50.852718
2023-09-17T08:03:28.031Z,50.852772
2023-09-17T08:04:28.082Z,50.852760
2023-09-17T08:05:27.989Z,50.852730
2023-09-17T08:06:27.982Z,50.852741
2023-09-17T08:07:27.965Z,50.852772
2023-09-17T08:08:27.997Z,50.852741
2023-09-17T08:09:27.943Z,50.852764
2023-09-17T08:10:27.969Z,50.852730
2023-09-17T08:11:27.942Z,50.852722
2023-09-17T08:12:27.922Z,50.852730
2023-09-17T08:13:27.993Z,50.852726
2023-09-17T08:14:27.932Z,50.852737
2023-09-17T08:15:27.893Z,50.852718
2023-09-17T08:16:28.013Z,50.852730
2023-09-17T08:17:27.961Z,50.852734
2023-09-17T08:18:27.877Z,50.852737
2023-09-17T08:19:27.892Z,50.852749
2023-09-17T08:20:27.862Z,50.852760
2023-09-17T08:21:28.858Z,50.852684
2023-09-17T08:22:27.884Z,50.852711
2023-09-17T08:23:27.832Z,50.852695
2023-09-17T08:24:27.860Z,50.852715
2023-09-17T08:25:28.043Z,50.852715
2023-09-17T08:26:27.822Z,50.852718
2023-09-17T08:27:27.796Z,50.852711
2023-09-17T08:28:27.816Z,50.852722
2023-09-17T08:29:27.780Z,50.852745
2023-09-17T08:30:27.835Z,50.852745
2023-09-17T08:31:27.856Z,50.852772
2023-09-17T08:32:27.839Z,50.852760
2023-09-17T08:33:27.747Z,50.852764
2023-09-17T08:34:27.783Z,50.852768
2023-09-17T08:35:27.746Z,50.852741
2023-09-17T08:36:27.745Z,50.852741
2023-09-17T08:37:27.757Z,50.852741
2023-09-17T08:38:27.746Z,50.852764
2023-09-17T08:39:27.708Z,50.852764
2023-09-17T08:40:28.503Z,50.852791
2023-09-17T08:41:27.690Z,50.852745
2023-09-17T08:42:27.707Z,50.852779
2023-09-17T08:43:27.726Z,50.852779
2023-09-17T08:44:27.699Z,50.852783
2023-09-17T08:45:27.659Z,50.852791
2023-09-17T08:46:28.184Z,50.852772
2023-09-17T08:47:27.689Z,50.852779
2023-09-17T08:48:27.679Z,50.852764
2023-09-17T08:49:27.676Z,50.852753
2023-09-17T08:50:27.648Z,50.852741
2023-09-17T08:51:27.615Z,50.852757
2023-09-17T08:52:27.672Z,50.852776
2023-09-17T08:53:27.608Z,50.852776
2023-09-17T08:54:27.641Z,50.852779
2023-09-17T08:55:27.651Z,50.852764
2023-09-17T08:56:27.604Z,50.852768
2023-09-17T08:57:27.587Z,50.852783
2023-09-17T08:58:27.635Z,50.852795
2023-09-17T08:59:27.579Z,50.852787
2023-09-17T09:00:27.608Z,50.852783
2023-09-17T09:01:27.664Z,50.852764
2023-09-17T09:02:27.636Z,50.852760
2023-09-17T09:03:27.595Z,50.852825
2023-09-17T09:04:27.581Z,50.852802
2023-09-17T09:05:27.514Z,50.852814
2023-09-17T09:06:27.531Z,50.852818
2023-09-17T09:07:27.501Z,50.852829
2023-09-17T09:08:27.513Z,50.852772
2023-09-17T09:09:27.525Z,50.852779
2023-09-17T09:10:27.565Z,50.852776
2023-09-17T09:11:27.505Z,50.852730
2023-09-17T09:12:27.498Z,50.852802
2023-09-17T09:13:27.463Z,50.852783
2023-09-17T09:14:27.486Z,50.852802
2023-09-17T09:15:27.477Z,50.852764
2023-09-17T09:16:27.540Z,50.852772
2023-09-17T09:17:27.515Z,50.852795
2023-09-17T09:18:27.445Z,50.852745
2023-09-17T09:19:27.454Z,50.852753
2023-09-17T09:20:27.441Z,50.852779
2023-09-17T09:21:27.443Z,50.852791
2023-09-17T09:22:27.448Z,50.852741
2023-09-17T09:23:27.379Z,50.852745
2023-09-17T09:24:27.407Z,50.852734
2023-09-17T09:25:27.381Z,50.852745
2023-09-17T09:26:27.376Z,50.852745
2023-09-17T09:27:27.372Z,50.852749
2023-09-17T09:28:27.357Z,50.852753
2023-09-17T09:29:29.754Z,50.852760
2023-09-17T09:30:27.350Z,50.852730
2023-09-17T09:31:27.331Z,50.852745
2023-09-17T09:32:27.370Z,50.852783
2023-09-17T09:33:27.448Z,50.852810
2023-09-17T09:34:27.382Z,50.852772
2023-09-17T09:35:27.292Z,50.852779
2023-09-17T09:36:27.305Z,50.852741
2023-09-17T09:37:27.323Z,50.852806
2023-09-17T09:38:27.289Z,50.852741
2023-09-17T09:39:27.296Z,50.852814
2023-09-17T09:40:27.323Z,50.852692
2023-09-17T09:41:27.245Z,50.852657
2023-09-17T09:42:27.268Z,50.852692
2023-09-17T09:43:27.261Z,50.852722
2023-09-17T09:44:27.258Z,50.852753
2023-09-17T09:45:27.297Z,50.852802
2023-09-17T09:46:27.321Z,50.852795
2023-09-17T09:47:27.285Z,50.852844
2023-09-17T09:48:27.215Z,50.852795
2023-09-17T09:49:27.214Z,50.852764
2023-09-17T09:50:27.200Z,50.852787
2023-09-17T09:51:27.199Z,50.852791
2023-09-17T09:52:27.228Z,50.852764
2023-09-17T09:53:27.161Z,50.852776
2023-09-17T09:54:27.190Z,50.852791
2023-09-17T09:55:27.168Z,50.852798
2023-09-17T09:56:27.157Z,50.852783
2023-09-17T09:57:27.224Z,50.852798
2023-09-17T09:58:27.183Z,50.852795
2023-09-17T09:59:27.135Z,50.852760
2023-09-17T10:00:27.135Z,50.852772
2023-09-17T10:01:27.153Z,50.852810
2023-09-17T10:02:27.168Z,50.852772
2023-09-17T10:03:27.089Z,50.852783
2023-09-17T10:04:27.134Z,50.852753
2023-09-17T10:05:27.150Z,50.852810
2023-09-17T10:06:27.094Z,50.852757
2023-09-17T10:07:27.068Z,50.852760
2023-09-17T10:08:27.094Z,50.852779
2023-09-17T10:09:27.068Z,50.852760
2023-09-17T10:10:27.053Z,50.852783
2023-09-17T10:11:27.076Z,50.852776
2023-09-17T10:12:27.048Z,50.852806
2023-09-17T10:13:27.069Z,50.852802
2023-09-17T10:14:27.053Z,50.852795
2023-09-17T10:15:27.067Z,50.852810
2023-09-17T10:16:27.019Z,50.852802
2023-09-17T10:17:27.018Z,50.852795
2023-09-17T10:18:27.022Z,50.852783
2023-09-17T10:19:27.047Z,50.852795
2023-09-17T10:20:27.776Z,50.852772
2023-09-17T10:21:26.994Z,50.852776
2023-09-17T10:22:26.976Z,50.852795
2023-09-17T10:23:26.975Z,50.852768
2023-09-17T10:24:26.997Z,50.852783
2023-09-17T10:25:26.950Z,50.852757
2023-09-17T10:26:26.955Z,50.852768
2023-09-17T10:27:26.938Z,50.852776
2023-09-17T10:28:26.942Z,50.852768
2023-09-17T10:29:26.910Z,50.852810
2023-09-17T10:30:26.947Z,50.852787
2023-09-17T10:31:26.971Z,50.852776
2023-09-17T10:32:26.930Z,50.852776
2023-09-17T10:33:26.876Z,50.852764
2023-09-17T10:34:26.895Z,50.852764
2023-09-17T10:35:26.894Z,50.852802
2023-09-17T10:36:26.872Z,50.852791
2023-09-17T10:37:26.851Z,50.852772
2023-09-17T10:38:26.900Z,50.852768
2023-09-17T10:39:26.841Z,50.852814
2023-09-17T10:40:26.839Z,50.852795
2023-09-17T10:41:26.863Z,50.852810
2023-09-17T10:42:26.833Z,50.852818
2023-09-17T10:43:26.817Z,50.852779
2023-09-17T10:44:26.820Z,50.852741
2023-09-17T10:45:26.804Z,50.852734
2023-09-17T10:46:26.819Z,50.852730
2023-09-17T10:47:26.842Z,50.852749
2023-09-17T10:48:26.820Z,50.852745
2023-09-17T10:49:26.774Z,50.852734
2023-09-17T10:50:26.774Z,50.852760
2023-09-17T10:51:26.750Z,50.852764
2023-09-17T10:52:26.762Z,50.852810
2023-09-17T10:53:26.737Z,50.852741
2023-09-17T10:54:26.775Z,50.852764
2023-09-17T10:55:26.725Z,50.852795
2023-09-17T10:56:26.750Z,50.852829
2023-09-17T10:57:26.709Z,50.852837
2023-09-17T10:58:26.721Z,50.852806
2023-09-17T10:59:26.710Z,50.852787
2023-09-17T11:00:26.708Z,50.852760
2023-09-17T11:01:26.717Z,50.852760
2023-09-17T11:02:26.884Z,50.852798
2023-09-17T11:03:26.729Z,50.852779
2023-09-17T11:04:26.689Z,50.852768
2023-09-17T11:05:26.661Z,50.852768
2023-09-17T11:06:26.667Z,50.852798
2023-09-17T11:07:26.641Z,50.852764
2023-09-17T11:08:26.650Z,50.852798
2023-09-17T11:09:26.626Z,50.852795
2023-09-17T11:10:32.627Z,50.852791
2023-09-17T11:11:27.648Z,50.852837
2023-09-17T11:12:26.620Z,50.852898
2023-09-17T11:13:26.596Z,50.852856
2023-09-17T11:14:26.606Z,50.852814
2023-09-17T11:15:26.596Z,50.852859
2023-09-17T11:16:26.723Z,50.852833
2023-09-17T11:17:26.786Z,50.852867
2023-09-17T11:18:26.642Z,50.852867
2023-09-17T11:19:26.631Z,50.852871
2023-09-17T11:20:26.576Z,50.852863
2023-09-17T11:21:26.562Z,50.852848
2023-09-17T11:22:26.556Z,50.852795
2023-09-17T11:23:26.537Z,50.852821
2023-09-17T11:24:26.559Z,50.852844